Flight Track Log - Related Links

Times and Time Zones

All times are in EDT time to prevent confusion due to time zone crossing. See the AFR688 flight status page for this flight to view local times or setup timezone preferences in your user account.

Time Position Orientation Groundspeed Altitude Reporting Facility
EDT Latitude Longitude Course Direction KTS MPH feet Rate Location/Type
Wed 08:12:00 AM 49.0971 2.2211 260° West  Level Estimated
Wed 08:13:00 AM 49.1409 2.0497 261° West  Level Estimated
Wed 08:14:00 AM 49.1845 1.8780 264° West  Level Estimated
Wed 08:15:00 AM 49.2279 1.7060 259° West  Level Estimated
Wed 08:16:00 AM 49.1401 1.5797 223° Southwest  Level FlightAware Approximate
Wed 08:17:00 AM 49.0523 1.4539 223° Southwest  Level FlightAware Approximate
Wed 08:19:09 AM 48.9955 2.5511 264° West 180 207 500  Level FlightAware ADS-B
Wed 08:19:15 AM 48.9947 2.5428 262° West 181 208 800 2,625 Climbing FlightAware ADS-B
Wed 08:19:25 AM 48.9936 2.5307 262° West 180 207 1,200 2,700 Climbing FlightAware ADS-B
Wed 08:19:35 AM 48.9926 2.5175 263° West 179 206 1,700 2,348 Climbing FlightAware ADS-B
Wed 08:19:48 AM 48.9915 2.5017 264° West 184 212 2,100 1,714 Climbing FlightAware ADS-B
Wed 08:20:03 AM 48.9902 2.4821 264° West 187 215 2,500 1,750 Climbing FlightAware ADS-B
Wed 08:20:12 AM 48.9895 2.4707 265° West 185 213 2,800 1,895 Climbing FlightAware ADS-B
Wed 08:20:22 AM 48.9889 2.4575 266° West 188 216 3,100 1,565 Climbing FlightAware ADS-B
Wed 08:20:35 AM 48.9878 2.4392 265° West 194 223 3,400 1,364 Climbing FlightAware ADS-B
Wed 08:20:44 AM 48.9869 2.4265 264° West 201 231 3,600 1,000 Climbing FlightAware ADS-B
Wed 08:20:53 AM 48.9861 2.4144 264° West 210 242 3,700 750 Climbing FlightAware ADS-B
Wed 08:21:08 AM 48.9849 2.3918 265° West 226 260 3,900 828 Climbing FlightAware ADS-B
Wed 08:21:22 AM 48.9835 2.3681 265° West 245 282 4,100 1,034 Climbing FlightAware ADS-B
Wed 08:21:37 AM 48.9818 2.3417 264° West 259 298 4,400 1,400 Climbing FlightAware ADS-B
Wed 08:21:52 AM 48.9799 2.3133 264° West 269 310 4,800 2,000 Climbing FlightAware ADS-B
Wed 08:22:07 AM 48.9779 2.2842 264° West 273 314 5,400 2,400 Climbing FlightAware ADS-B
Wed 08:22:22 AM 48.9760 2.2572 264° West 274 315 6,000 2,571 Climbing FlightAware ADS-B
Wed 08:22:35 AM 48.9746 2.2314 265° West 276 318 6,600 2,483 Climbing FlightAware ADS-B
Wed 08:22:51 AM 48.9734 2.2011 267° West 278 320 7,200 2,182 Climbing FlightAware ADS-B
Wed 08:23:08 AM 48.9720 2.1670 266° West 283 326 7,800 2,182 Climbing FlightAware ADS-B
Wed 08:23:24 AM 48.9705 2.1353 266° West 286 329 8,400 2,308 Climbing FlightAware ADS-B
Wed 08:23:34 AM 48.9696 2.1148 266° West 288 331 8,800 2,308 Climbing FlightAware ADS-B
Wed 08:23:50 AM 48.9680 2.0836 266° West 290 334 9,400 1,962 Climbing FlightAware ADS-B
Wed 08:24:26 AM 48.9642 2.0082 266° West 303 349 10,500 -316 Climbing FlightAware ADS-B
Wed 08:24:47 AM 48.9783 2.0029 266° West 318 366 9,100 1,091 Descending FlightAware UK
Wed 08:24:59 AM 48.9605 1.9347 266° West 323 372 11,100 1,655 Climbing FlightAware ADS-B
Wed 08:25:16 AM 48.9634 1.9075 266° West 346 398 9,900 -1,543 Descending FlightAware UK
Wed 08:25:34 AM 48.9557 1.8506 258° West 356 410 10,200 3,385 Climbing FlightAware UK
Wed 08:25:55 AM 48.9527 1.7970 258° West 375 432 12,100 1,333 Climbing FlightAware ADS-B
Wed 08:26:10 AM 48.9494 1.7575 258° West 384 442 11,000 -909 Descending FlightAware UK
Wed 08:26:28 AM 48.9445 1.7066 262° West 392 451 11,600 6,273 Climbing FlightAware UK
Wed 08:26:32 AM 48.9470 1.7070 262° West 384 442 13,300 6,522 Climbing FlightAware ADS-B
Wed 08:26:51 AM 48.9433 1.6474 265° West 383 441 14,100  Climbing FlightAware ADS-B
Wed 08:27:10 AM 48.9389 1.5944 265° West 400 460 13,300 2,129 Descending FlightAware UK
Wed 08:27:22 AM 48.9380 1.5690 265° West 388 447 15,200 2,000 Climbing FlightAware ADS-B
Wed 08:28:22 AM 48.9361 1.3962 265° West 414 476 15,700 929 Climbing FlightAware UK
Wed 08:28:46 AM 48.9373 1.3289 272° West 418 481 16,500 1,875 Climbing FlightAware UK
Wed 08:29:10 AM 48.9375 1.2603 270° West 422 486 17,200 1,875 Climbing FlightAware UK
Wed 08:29:34 AM 48.9373 1.1917 270° West 426 490 18,000 1,714 Climbing FlightAware UK
Wed 08:29:52 AM 48.9366 1.1401 269° West 428 493 18,400 1,500 Climbing FlightAware UK
Wed 08:30:10 AM 48.9364 1.0880 270° West 432 497 18,900 1,714 Climbing FlightAware UK
Wed 08:30:34 AM 48.9362 1.0178 270° West 438 504 19,600 1,750 Climbing FlightAware UK
Wed 08:30:58 AM 48.9359 0.9472 270° West 442 509 20,300 1,700 Climbing FlightAware UK
Wed 08:31:34 AM 48.9354 0.8409 270° West 448 516 21,300 1,667 Climbing FlightAware UK
Wed 08:31:52 AM 48.9352 0.7871 270° West 452 520 21,800 1,500 Climbing FlightAware UK
Wed 08:32:10 AM 48.9367 0.7330 273° West 452 520 22,200 1,333 Climbing FlightAware UK
Wed 08:32:28 AM 48.9450 0.6789 283° West 458 527 22,600 1,333 Climbing FlightAware UK
Wed 08:33:04 AM 48.9423 0.5703 268° West 460 529 23,400 1,333 Climbing FlightAware UK
Wed 08:33:22 AM 48.9379 0.5160 263° West 462 532 23,800 1,167 Climbing FlightAware UK
Wed 08:33:40 AM 48.9343 0.4604 264° West 466 536 24,100 1,171 Climbing FlightAware UK
Wed 08:34:03 AM 48.9327 0.3862 268° West 470 541 24,600 1,277 Climbing FlightAware UK
Wed 08:34:27 AM 48.9325 0.3113 270° West 474 545 25,100 1,250 Climbing FlightAware UK
Wed 08:34:51 AM 48.9320 0.2359 270° West 478 550 25,600 1,143 Climbing FlightAware UK
Wed 08:35:09 AM 48.9301 0.1785 267° West 480 552 25,900 1,143 Climbing FlightAware UK
Wed 08:35:33 AM 48.9223 0.1017 261° West 484 557 26,400 1,286 Climbing FlightAware UK
Wed 08:35:51 AM 48.9179 0.0444 263° West 486 559 26,800 1,125 Climbing FlightAware UK
Wed 08:36:21 AM 48.9104 -0.0509 263° West 490 564 27,300 461 Climbing FlightAware UK
Wed 08:38:00 AM 48.9783 -0.3353 290° West  Level Estimated
Wed 08:45:00 AM 49.2582 -1.5505 290° West  Level Estimated
Wed 08:46:00 AM 49.2971 -1.7253 289° West  Level Estimated
Wed 08:47:00 AM 49.3358 -1.9003 289° West  Level Estimated
Wed 08:48:00 AM 49.3742 -2.0755 289° West  Level Estimated
Wed 08:48:13 AM 48.7269 -2.3334 289° West 488 562 32,500  Level FlightAware UK
Wed 08:49:19 AM 48.7095 -2.5404 263° West 490 564 32,400 -71 Descending FlightAware UK
Wed 08:49:37 AM 48.7050 -2.5978 263° West 490 564 32,400  Level FlightAware UK
Wed 08:50:01 AM 48.6990 -2.6746 263° West 488 562 32,400 125 Level FlightAware UK
Wed 08:50:25 AM 48.6806 -2.7465 249° West 488 562 32,500  Climbing FlightAware UK
Wed 08:50:43 AM 48.6688 -2.8009 252° West 488 562 32,400 -167 Descending FlightAware UK
Wed 08:51:01 AM 48.6598 -2.8571 256° West 488 562 32,400 167 Level FlightAware UK
Wed 08:51:19 AM 48.6526 -2.9138 259° West 488 562 32,500  Climbing FlightAware UK
Wed 08:51:55 AM 48.6393 -3.0263 260° West 490 564 32,400 -111 Descending FlightAware UK
Wed 08:52:13 AM 48.6331 -3.0830 261° West 490 564 32,400 143 Level FlightAware UK
Wed 08:52:37 AM 48.6252 -3.1582 261° West 490 564 32,500 143 Climbing FlightAware UK
Wed 08:52:55 AM 48.6193 -3.2150 261° West 490 564 32,500  Level FlightAware UK
Wed 08:53:19 AM 48.6115 -3.2912 261° West 490 564 32,500  Level FlightAware UK
Wed 08:53:43 AM 48.6033 -3.3669 261° West 490 564 32,500  Level FlightAware UK
Wed 08:54:07 AM 48.5950 -3.4416 260° West 490 564 32,500  Level FlightAware UK
Wed 08:54:43 AM 48.5826 -3.5548 261° West 490 564 32,500  Level FlightAware UK
Wed 08:55:01 AM 48.5763 -3.6114 261° West 490 564 32,500  Level FlightAware UK
Wed 08:55:25 AM 48.5681 -3.6867 261° West 490 564 32,500 -143 Level FlightAware UK
Wed 08:55:43 AM 48.5618 -3.7431 261° West 490 564 32,400 3,333 Descending FlightAware UK
Wed 08:55:52 AM 48.5610 -3.7540 261° West 455 524 34,000 171 Climbing FlightAware ADS-B
Wed 08:56:18 AM 48.5491 -3.8552 261° West 490 564 32,500  Descending FlightAware UK
Wed 08:56:32 AM 48.5470 -3.8790 261° West 454 522 34,000  Climbing FlightAware ADS-B
Wed 08:56:48 AM 48.5385 -3.9491 261° West 490 564 32,500  Descending FlightAware UK
Wed 08:57:12 AM 48.5330 -4.0020 261° West 453 521 34,000  Climbing FlightAware ADS-B
Wed 08:57:36 AM 48.5213 -4.0988 261° West 490 564 32,500  Descending FlightAware UK
Wed 08:57:52 AM 48.5180 -4.1290 260° West 452 520 34,000  Climbing FlightAware ADS-B
Wed 08:57:54 AM 48.5149 -4.1548 260° West 490 564 32,500 -3,462 Descending FlightAware UK
Wed 08:58:18 AM 48.5063 -4.2293 260° West 490 564 32,500  Level FlightAware UK
Wed 08:58:36 AM 48.4998 -4.2852 260° West 490 564 32,500 4,737 Level FlightAware UK
Wed 08:58:37 AM 48.5020 -4.2680 260° West 452 520 34,000  Climbing FlightAware ADS-B
Wed 08:58:54 AM 48.4931 -4.3408 260° West 490 564 32,500 -2,571 Descending FlightAware UK
Wed 08:59:12 AM 48.4865 -4.3965 260° West 490 564 32,500 3,214 Level FlightAware UK
Wed 08:59:22 AM 48.4860 -4.4070 260° West 452 520 34,000  Climbing FlightAware ADS-B
Wed 08:59:42 AM 48.4755 -4.4893 260° West 490 564 32,500 -2,368 Descending FlightAware UK
Wed 09:00:00 AM 48.4689 -4.5449 260° West 490 564 32,500 4,500 Level FlightAware UK
Wed 09:00:02 AM 48.4710 -4.5310 260° West 452 520 34,000  Climbing FlightAware ADS-B
Wed 09:00:18 AM 48.4621 -4.6004 260° West 490 564 32,500 -2,647 Descending FlightAware UK
Wed 09:00:36 AM 48.4554 -4.6560 260° West 490 564 32,500 3,750 Level FlightAware UK
Wed 09:00:42 AM 48.4560 -4.6540 260° West 452 520 34,000  Climbing FlightAware ADS-B
Wed 09:01:00 AM 48.4466 -4.7301 260° West 490 564 32,500 -2,500 Descending FlightAware UK
Wed 09:01:18 AM 48.4399 -4.7849 260° West 490 564 32,500 3,333 Level FlightAware UK
Wed 09:01:27 AM 48.4390 -4.7960 260° West 452 520 34,000  Climbing FlightAware ADS-B
Wed 09:01:42 AM 48.4308 -4.8590 260° West 490 564 32,500  Descending FlightAware UK
Wed 09:02:12 AM 48.4220 -4.9360 260° West 451 519 34,000  Climbing FlightAware ADS-B
Wed 09:02:30 AM 48.4125 -5.0068 260° West 490 564 32,500 -2,143 Descending FlightAware UK
Wed 09:02:54 AM 48.4034 -5.0808 260° West 490 564 32,500  Level FlightAware UK
Wed 09:03:12 AM 48.3964 -5.1362 259° West 490 564 32,500  Level FlightAware UK
Wed 09:03:30 AM 48.3896 -5.1916 260° West 490 564 32,500 2,571 Level FlightAware UK
Wed 09:03:47 AM 48.3850 -5.2330 260° West 450 518 34,000  Climbing FlightAware ADS-B
Wed 09:04:06 AM 48.3759 -5.3022 260° West 490 564 32,500 -2,432 Descending FlightAware UK
Wed 09:04:24 AM 48.3687 -5.3573 259° West 490 564 32,500 4,286 Level FlightAware UK
Wed 09:04:27 AM 48.3690 -5.3590 259° West 450 518 34,000  Climbing FlightAware ADS-B
Wed 09:04:42 AM 48.3622 -5.4127 259° West 490 564 32,500 -2,727 Descending FlightAware UK
Wed 09:05:00 AM 48.3555 -5.4679 260° West 490 564 32,500 3,000 Level FlightAware UK
Wed 09:05:12 AM 48.3520 -5.4900 260° West 450 518 34,000  Climbing FlightAware ADS-B
Wed 09:05:30 AM 48.3438 -5.5599 260° West 490 564 32,500 -2,500 Descending FlightAware UK
Wed 09:05:48 AM 48.3366 -5.6149 259° West 490 564 32,500 4,091 Level FlightAware UK
Wed 09:05:52 AM 48.3350 -5.6190 259° West 449 517 34,000  Climbing FlightAware ADS-B
Wed 09:06:12 AM 48.3272 -5.6883 259° West 490 564 32,500 -2,368 Descending FlightAware UK
Wed 09:06:30 AM 48.3201 -5.7433 259° West 490 564 32,500 4,500 Level FlightAware UK
Wed 09:06:32 AM 48.3190 -5.7420 259° West 449 517 34,000  Climbing FlightAware ADS-B
Wed 09:06:48 AM 48.3130 -5.7983 259° West 490 564 32,500 -2,824 Descending FlightAware UK
Wed 09:07:06 AM 48.3057 -5.8524 259° West 490 564 32,400 3,750 Descending FlightAware UK
Wed 09:07:12 AM 48.3050 -5.8520 259° West 448 516 34,000  Climbing FlightAware ADS-B
Wed 09:07:30 AM 48.2960 -5.9254 259° West 490 564 32,400 -2,167 Descending FlightAware UK
Wed 09:07:48 AM 48.2888 -5.9802 259° West 490 564 32,700 4,444 Climbing FlightAware UK
Wed 09:07:57 AM 48.2850 -6.0000 259° West 448 516 34,400 1,250 Climbing FlightAware ADS-B
Wed 09:08:12 AM 48.2784 -6.0525 259° West 488 562 33,200 -1,636 Descending FlightAware UK
Wed 09:08:30 AM 48.2707 -6.1067 258° West 488 562 33,500 3,800 Climbing FlightAware UK
Wed 09:08:42 AM 48.2670 -6.1350 258° West 445 512 35,100 800 Climbing FlightAware ADS-B
Wed 09:09:00 AM 48.2587 -6.1973 258° West 486 559 33,900 -1,500 Descending FlightAware UK
Wed 09:09:18 AM 48.2515 -6.2517 259° West 486 559 34,200 4,909 Climbing FlightAware UK
Wed 09:09:22 AM 48.2510 -6.2520 259° West 444 511 35,700 750 Climbing FlightAware ADS-B
Wed 09:09:42 AM 48.2416 -6.3238 259° West 486 559 34,500 -1,895 Descending FlightAware UK
Wed 09:10:00 AM 48.2342 -6.3777 258° West 484 557 34,500 4,500 Level FlightAware UK
Wed 09:10:02 AM 48.2350 -6.3750 258° West 439 505 36,000  Climbing FlightAware ADS-B
Wed 09:10:18 AM 48.2271 -6.4314 258° West 482 555 34,500 -2,647 Descending FlightAware UK
Wed 09:10:36 AM 48.2197 -6.4850 258° West 484 557 34,500  Level FlightAware UK
Wed 09:10:54 AM 48.2122 -6.5384 258° West 484 557 34,500  Level FlightAware UK
Wed 09:11:12 AM 48.2047 -6.5916 258° West 484 557 34,500 -167 Level FlightAware UK
Wed 09:11:30 AM 48.1974 -6.6447 258° West 484 557 34,400 -167 Descending FlightAware UK
Wed 09:11:48 AM 48.1900 -6.6979 258° West 484 557 34,400  Level FlightAware UK
Wed 09:12:06 AM 48.1825 -6.7511 258° West 486 559 34,400  Level FlightAware UK
Wed 09:12:24 AM 48.1750 -6.8043 258° West 484 557 34,400  Level FlightAware UK
Wed 09:12:42 AM 48.1674 -6.8577 258° West 484 557 34,400  Level FlightAware UK
Wed 09:13:00 AM 48.1600 -6.9104 258° West 484 557 34,400 4,800 Level FlightAware UK
Wed 09:13:02 AM 48.1630 -6.8910 258° West 438 504 36,000  Climbing FlightAware ADS-B
Wed 09:13:18 AM 48.1523 -6.9636 258° West 484 557 34,400 -2,824 Descending FlightAware UK
Wed 09:13:36 AM 48.1447 -7.0169 258° West 486 559 34,400 4,000 Level FlightAware UK
Wed 09:13:42 AM 48.1490 -6.9920 258° West 438 504 36,000  Climbing FlightAware ADS-B
Wed 09:14:00 AM 48.1345 -7.0879 258° West 484 557 34,400 -2,667 Descending FlightAware UK
Wed 09:14:18 AM 48.1269 -7.1410 258° West 484 557 34,400  Level FlightAware UK
Wed 09:14:36 AM 48.1192 -7.1941 258° West 482 555 34,400 167 Level FlightAware UK
Wed 09:14:54 AM 48.1116 -7.2472 258° West 482 555 34,500 2,667 Climbing FlightAware UK
Wed 09:15:12 AM 48.1070 -7.2730 258° West 436 502 36,000  Climbing FlightAware ADS-B
Wed 09:15:30 AM 48.0963 -7.3533 258° West 484 557 34,500 -2,500 Descending FlightAware UK
Wed 09:15:48 AM 48.0885 -7.4064 258° West 484 557 34,500 4,091 Level FlightAware UK
Wed 09:15:52 AM 48.0920 -7.3730 258° West 436 502 36,000 2,045 Climbing FlightAware ADS-B
Wed 09:16:32 AM 48.0760 -7.4730 257° West 436 502 36,000  Level FlightAware ADS-B
Wed 09:17:12 AM 48.0610 -7.5730 257° West 436 502 36,000  Level FlightAware ADS-B
Wed 09:18:02 AM 48.0420 -7.6980 257° West 436 502 36,000  Level FlightAware ADS-B
Wed 09:18:42 AM 48.0260 -7.7980 257° West 436 502 36,000  Level FlightAware ADS-B
Wed 09:19:07 AM 48.1720 -6.8270 77° East 36,000  Level FlightAware ADS-B
Wed 09:21:00 AM 48.2306 -7.1317 286° West  Level Estimated
Wed 09:22:00 AM 48.2613 -7.2938 286° West  Level Estimated
Wed 09:23:00 AM 48.2919 -7.4561 286° West  Level Estimated
Wed 09:24:00 AM 48.3222 -7.6185 286° West  Level Estimated
Wed 09:25:00 AM 48.3523 -7.7812 286° West  Level Estimated
Wed 09:26:00 AM 48.3821 -7.9440 285° West  Level Estimated
Wed 09:27:00 AM 48.4117 -8.1071 285° West  Level Estimated
Wed 09:28:00 AM 48.4411 -8.2703 285° West  Level Estimated
Wed 09:29:00 AM 48.4703 -8.4337 285° West  Level Estimated
Wed 09:30:00 AM 48.4992 -8.5973 285° West  Level Estimated
Wed 09:31:00 AM 48.5279 -8.7611 285° West  Level Estimated
Wed 09:32:00 AM 48.5564 -8.9251 285° West  Level Estimated
Wed 09:33:00 AM 48.5846 -9.0893 285° West  Level Estimated
Wed 09:34:00 AM 48.6126 -9.2536 285° West  Level Estimated
Wed 09:35:00 AM 48.6404 -9.4181 284° West  Level Estimated
Wed 09:36:00 AM 48.6679 -9.5828 284° West  Level Estimated
Wed 09:37:00 AM 48.6952 -9.7477 284° West  Level Estimated
Wed 09:38:00 AM 48.7222 -9.9128 284° West  Level Estimated
Wed 09:39:00 AM 48.7491 -10.0780 284° West  Level Estimated
Wed 09:40:00 AM 48.7756 -10.2434 284° West  Level Estimated
Wed 09:41:00 AM 48.8020 -10.4090 284° West  Level Estimated
Wed 09:42:00 AM 48.8281 -10.5748 284° West  Level Estimated
Wed 09:43:00 AM 48.8540 -10.7407 283° West  Level Estimated
Wed 09:44:00 AM 48.8796 -10.9068 283° West  Level Estimated
Wed 09:45:00 AM 48.9050 -11.0731 283° West  Level Estimated
Wed 09:46:00 AM 48.9301 -11.2395 283° West  Level Estimated
Wed 09:47:00 AM 48.9551 -11.4061 283° West  Level Estimated
Wed 09:48:00 AM 48.9797 -11.5729 283° West  Level Estimated
Wed 09:49:00 AM 49.0042 -11.7398 283° West  Level Estimated
Wed 09:50:00 AM 49.0284 -11.9069 283° West  Level Estimated
Wed 09:51:00 AM 49.0523 -12.0742 282° West  Level Estimated
Wed 09:52:00 AM 49.0760 -12.2416 282° West  Level Estimated
Wed 09:53:00 AM 49.0995 -12.4092 282° West  Level Estimated
Wed 09:54:00 AM 49.1227 -12.5769 282° West  Level Estimated
Wed 09:55:00 AM 49.1457 -12.7448 282° West  Level Estimated
Wed 09:56:00 AM 49.1684 -12.9129 282° West  Level Estimated
Wed 09:57:00 AM 49.1908 -13.0802 282° West  Level Estimated
Wed 09:58:00 AM 49.2129 -13.2477 281° West  Level Estimated
Wed 09:59:00 AM 49.2348 -13.4154 281° West  Level Estimated
Wed 10:00:00 AM 49.2565 -13.5832 281° West  Level Estimated
Wed 10:01:00 AM 49.2779 -13.7511 281° West  Level Estimated
Wed 10:02:00 AM 49.2991 -13.9192 281° West  Level Estimated
Wed 10:03:00 AM 49.3200 -14.0874 281° West  Level Estimated
Wed 10:04:00 AM 49.3407 -14.2558 281° West  Level Estimated
Wed 10:05:00 AM 49.3611 -14.4243 281° West  Level Estimated
Wed 10:06:00 AM 49.3813 -14.5930 280° West  Level Estimated
Wed 10:07:00 AM 49.4012 -14.7618 280° West  Level Estimated
Wed 10:08:00 AM 49.4209 -14.9307 280° West  Level Estimated
Wed 10:09:00 AM 49.4404 -15.0998 280° West  Level Estimated
Wed 10:10:00 AM 49.4596 -15.2690 280° West  Level Estimated
Wed 10:11:00 AM 49.4785 -15.4383 280° West  Level Estimated
Wed 10:12:00 AM 49.4972 -15.6077 280° West  Level Estimated
Wed 10:13:00 AM 49.5157 -15.7773 280° West  Level Estimated
Wed 10:14:00 AM 49.5339 -15.9471 279° West  Level Estimated
Wed 10:15:00 AM 49.5519 -16.1169 279° West  Level Estimated
Wed 10:16:00 AM 49.5696 -16.2868 279° West  Level Estimated
Wed 10:17:00 AM 49.5871 -16.4569 279° West  Level Estimated
Wed 10:18:00 AM 49.6043 -16.6271 279° West  Level Estimated
Wed 10:19:00 AM 49.6213 -16.7975 279° West  Level Estimated
Wed 10:20:00 AM 49.6380 -16.9679 279° West  Level Estimated
Wed 10:21:00 AM 49.6544 -17.1385 279° West  Level Estimated
Wed 10:22:00 AM 49.6707 -17.3092 278° West  Level Estimated
Wed 10:23:00 AM 49.6866 -17.4800 278° West  Level Estimated
Wed 10:24:00 AM 49.7024 -17.6509 278° West  Level Estimated
Wed 10:25:00 AM 49.7178 -17.8219 278° West  Level Estimated
Wed 10:26:00 AM 49.7330 -17.9930 278° West  Level Estimated
Wed 10:26:00 AM 48.0000 -20.0000 274° West 445 512 36,000  Level ETMS Enhanced Traffic Management System
Wed 10:27:00 AM 49.7480 -18.1642 278° West  Level Estimated
Wed 10:28:00 AM 49.7627 -18.3355 278° West  Level Estimated
Wed 10:29:00 AM 49.7771 -18.5070 278° West  Level Estimated
Wed 10:30:00 AM 49.7913 -18.6785 277° West  Level Estimated
Wed 10:31:00 AM 49.8053 -18.8501 277° West  Level Estimated
Wed 10:32:00 AM 48.0429 -21.1089 273° West 445 512 36,000  Level FlightAware Transoceanic
Wed 10:33:00 AM 48.0490 -21.2939 273° West 445 512 36,000  Level FlightAware Transoceanic
Wed 10:34:00 AM 48.0548 -21.4790 273° West 445 512 36,000  Level FlightAware Transoceanic
Wed 10:35:00 AM 48.0603 -21.6641 272° West 445 512 36,000  Level FlightAware Transoceanic
Wed 10:36:00 AM 48.0655 -21.8492 272° West 445 512 36,000  Level FlightAware Transoceanic
Wed 10:37:00 AM 48.0704 -22.0343 272° West 445 512 36,000  Level FlightAware Transoceanic
Wed 10:38:00 AM 48.0751 -22.2195 272° West 445 512 36,000  Level FlightAware Transoceanic
Wed 10:39:00 AM 48.0794 -22.4047 272° West 445 512 36,000  Level FlightAware Transoceanic
Wed 10:40:00 AM 48.0834 -22.5900 272° West 445 512 36,000  Level FlightAware Transoceanic
Wed 10:41:00 AM 48.0871 -22.7753 272° West 445 512 36,000  Level FlightAware Transoceanic
Wed 10:42:00 AM 48.0906 -22.9606 272° West 445 512 36,000  Level FlightAware Transoceanic
Wed 10:43:00 AM 48.0937 -23.1459 271° West 445 512 36,000  Level FlightAware Transoceanic
Wed 10:44:00 AM 48.0965 -23.3312 271° West 445 512 36,000  Level FlightAware Transoceanic
Wed 10:45:00 AM 48.0991 -23.5166 271° West 445 512 36,000  Level FlightAware Transoceanic
Wed 10:46:00 AM 48.1013 -23.7020 271° West 445 512 36,000  Level FlightAware Transoceanic
Wed 10:47:00 AM 48.1032 -23.8874 271° West 445 512 36,000  Level FlightAware Transoceanic
Wed 10:48:00 AM 48.1049 -24.0728 271° West 445 512 36,000  Level FlightAware Transoceanic
Wed 10:49:00 AM 48.1062 -24.2582 271° West 445 512 36,000  Level FlightAware Transoceanic
Wed 10:50:00 AM 48.1073 -24.4437 270° West 445 512 36,000  Level FlightAware Transoceanic
Wed 10:51:00 AM 48.1080 -24.6291 270° West 445 512 36,000  Level FlightAware Transoceanic
Wed 10:52:00 AM 48.1085 -24.8146 270° West 445 512 36,000  Level FlightAware Transoceanic
Wed 10:52:00 AM 48.1333 -24.7500 270° West 451 519 36,000  Level ETMS Enhanced Traffic Management System
Wed 10:53:00 AM 48.1086 -25.0000 270° West 445 512 36,000  Level FlightAware Transoceanic
Wed 10:54:00 AM 48.1085 -25.1854 270° West 445 512 36,000  Level FlightAware Transoceanic
Wed 10:55:00 AM 48.1080 -25.3709 270° West 445 512 36,000  Level FlightAware Transoceanic
Wed 10:56:00 AM 48.1073 -25.5563 270° West 445 512 36,000  Level FlightAware Transoceanic
Wed 10:57:00 AM 48.1062 -25.7418 269° West 445 512 36,000  Level FlightAware Transoceanic
Wed 10:58:00 AM 48.1249 -25.8769 269° West 451 519 36,000  Level FlightAware Transoceanic
Wed 10:59:00 AM 48.1224 -26.0647 269° West 451 519 36,000  Level FlightAware Transoceanic
Wed 11:00:00 AM 48.1197 -26.2524 269° West 451 519 36,000  Level FlightAware Transoceanic
Wed 11:01:00 AM 48.1166 -26.4401 269° West 451 519 36,000  Level FlightAware Transoceanic
Wed 11:02:00 AM 48.1132 -26.6279 268° West 451 519 36,000  Level FlightAware Transoceanic
Wed 11:03:00 AM 48.1095 -26.8155 268° West 451 519 36,000  Level FlightAware Transoceanic
Wed 11:04:00 AM 48.1055 -27.0032 268° West 451 519 36,000  Level FlightAware Transoceanic
Wed 11:05:00 AM 48.1012 -27.1908 268° West 451 519 36,000  Level FlightAware Transoceanic
Wed 11:06:00 AM 48.0966 -27.3784 268° West 451 519 36,000  Level FlightAware Transoceanic
Wed 11:07:00 AM 48.0916 -27.5660 268° West 451 519 36,000  Level FlightAware Transoceanic
Wed 11:08:00 AM 48.0864 -27.7535 268° West 451 519 36,000  Level FlightAware Transoceanic
Wed 11:09:00 AM 48.0809 -27.9410 267° West 451 519 36,000  Level FlightAware Transoceanic
Wed 11:10:00 AM 48.0751 -28.1284 267° West 451 519 36,000  Level FlightAware Transoceanic
Wed 11:11:00 AM 48.0689 -28.3158 267° West 451 519 36,000  Level FlightAware Transoceanic
Wed 11:12:00 AM 48.0625 -28.5031 267° West 451 519 36,000  Level FlightAware Transoceanic
Wed 11:13:00 AM 48.0557 -28.6904 267° West 451 519 36,000  Level FlightAware Transoceanic
Wed 11:14:00 AM 48.0487 -28.8777 267° West 451 519 36,000  Level FlightAware Transoceanic
Wed 11:15:00 AM 48.0413 -29.0649 267° West 451 519 36,000  Level FlightAware Transoceanic
Wed 11:16:00 AM 48.0337 -29.2520 266° West 451 519 36,000  Level FlightAware Transoceanic
Wed 11:17:00 AM 48.0257 -29.4391 266° West 451 519 36,000  Level FlightAware Transoceanic
Wed 11:18:00 AM 48.0174 -29.6261 266° West 451 519 36,000  Level FlightAware Transoceanic
Wed 11:19:00 AM 48.0089 -29.8131 266° West 451 519 36,000 Level FlightAware Transoceanic
Wed 11:20:00 AM 48.0323 -29.9763 282° West  Level FlightAware Approximate
Wed 11:21:00 AM 48.0555 -30.1397 282° West  Level FlightAware Approximate
Wed 11:22:00 AM 48.0272 -30.1277 266° West  Level FlightAware Approximate
Wed 11:23:00 AM 48.0198 -30.2943 266° West  Level FlightAware Approximate
Wed 11:24:00 AM 48.0122 -30.4608 266° West  Level FlightAware Approximate
Wed 11:25:00 AM 48.0044 -30.6273 266° West  Level FlightAware Approximate
Wed 11:26:00 AM 47.9963 -30.7937 266° West  Level FlightAware Approximate
Wed 11:27:00 AM 47.9880 -30.9601 266° West  Level FlightAware Approximate
Wed 11:28:00 AM 47.9795 -31.1264 266° West  Level FlightAware Approximate
Wed 11:29:00 AM 47.9707 -31.2927 266° West  Level FlightAware Approximate
Wed 11:30:00 AM 47.9618 -31.4589 266° West  Level FlightAware Approximate
Wed 11:31:00 AM 47.9528 -31.6251 265° West  Level FlightAware Approximate
Wed 11:32:00 AM 47.9436 -31.7913 265° West  Level FlightAware Approximate
Wed 11:33:00 AM 47.9341 -31.9574 265° West  Level FlightAware Approximate
Wed 11:34:00 AM 47.9244 -32.1234 265° West  Level FlightAware Approximate
Wed 11:35:00 AM 47.9145 -32.2893 265° West  Level FlightAware Approximate
Wed 11:36:00 AM 47.9043 -32.4552 265° West  Level FlightAware Approximate
Wed 11:37:00 AM 47.8939 -32.6210 265° West  Level FlightAware Approximate
Wed 11:38:00 AM 47.8832 -32.7868 265° West  Level FlightAware Approximate
Wed 11:39:00 AM 47.8723 -32.9525 264° West  Level FlightAware Approximate
Wed 11:40:00 AM 47.8612 -33.1181 264° West  Level FlightAware Approximate
Wed 11:41:00 AM 47.8498 -33.2836 264° West  Level FlightAware Approximate
Wed 11:42:00 AM 47.8382 -33.4491 264° West  Level FlightAware Approximate
Wed 11:43:00 AM 47.8264 -33.6145 264° West  Level FlightAware Approximate
Wed 11:44:00 AM 47.8143 -33.7798 264° West  Level FlightAware Approximate
Wed 11:45:00 AM 47.8020 -33.9451 264° West  Level FlightAware Approximate
Wed 11:46:00 AM 47.7894 -34.1102 264° West  Level FlightAware Approximate
Wed 11:47:00 AM 47.7766 -34.2753 263° West  Level FlightAware Approximate
Wed 11:48:00 AM 47.7636 -34.4403 263° West  Level FlightAware Approximate
Wed 11:49:00 AM 47.7503 -34.6052 263° West  Level FlightAware Approximate
Wed 11:50:00 AM 47.7368 -34.7701 263° West  Level FlightAware Approximate
Wed 11:51:00 AM 47.7231 -34.9348 263° West  Level FlightAware Approximate
Wed 11:52:00 AM 47.7091 -35.0995 263° West  Level FlightAware Approximate
Wed 11:53:00 AM 47.6949 -35.2640 263° West  Level FlightAware Approximate
Wed 11:54:00 AM 47.6805 -35.4285 263° West  Level FlightAware Approximate
Wed 11:55:00 AM 47.6658 -35.5929 263° West  Level FlightAware Approximate
Wed 11:56:00 AM 47.6509 -35.7572 262° West  Level FlightAware Approximate
Wed 11:57:00 AM 47.6357 -35.9214 262° West  Level FlightAware Approximate
Wed 11:58:00 AM 47.6203 -36.0855 262° West  Level FlightAware Approximate
Wed 11:59:00 AM 47.6047 -36.2495 262° West  Level FlightAware Approximate
Wed 12:00:00 PM 47.5889 -36.4134 262° West  Level FlightAware Approximate
Wed 12:01:00 PM 47.5728 -36.5772 262° West  Level FlightAware Approximate
Wed 12:02:00 PM 47.5565 -36.7409 262° West  Level FlightAware Approximate
Wed 12:03:00 PM 47.5399 -36.9045 262° West  Level FlightAware Approximate
Wed 12:04:00 PM 47.5231 -37.0680 261° West  Level FlightAware Approximate
Wed 12:05:00 PM 47.5061 -37.2314 261° West  Level FlightAware Approximate
Wed 12:06:00 PM 47.4889 -37.3947 261° West  Level FlightAware Approximate
Wed 12:07:00 PM 47.4714 -37.5579 261° West  Level FlightAware Approximate
Wed 12:08:00 PM 47.4537 -37.7210 261° West  Level FlightAware Approximate
Wed 12:09:00 PM 47.4357 -37.8839 261° West  Level FlightAware Approximate
Wed 12:10:00 PM 47.4176 -38.0468 261° West  Level FlightAware Approximate
Wed 12:11:00 PM 47.3992 -38.2095 261° West  Level FlightAware Approximate
Wed 12:12:00 PM 47.3806 -38.3721 260° West  Level FlightAware Approximate
Wed 12:13:00 PM 47.3617 -38.5346 260° West  Level FlightAware Approximate
Wed 12:14:00 PM 47.3426 -38.6970 260° West  Level FlightAware Approximate
Wed 12:15:00 PM 47.3233 -38.8593 260° West  Level FlightAware Approximate
Wed 12:16:00 PM 47.3037 -39.0214 260° West  Level FlightAware Approximate
Wed 12:17:00 PM 47.2840 -39.1835 260° West  Level FlightAware Approximate
Wed 12:18:00 PM 47.2639 -39.3454 260° West  Level FlightAware Approximate
Wed 12:19:00 PM 47.2437 -39.5072 260° West  Level FlightAware Approximate
Wed 12:20:00 PM 47.2233 -39.6688 260° West  Level FlightAware Approximate
Wed 12:21:00 PM 47.2111 -39.8487 264° West  Level Estimated
Wed 12:22:00 PM 47.1986 -40.0284 264° West  Level Estimated
Wed 12:23:00 PM 47.1859 -40.2081 264° West  Level Estimated
Wed 12:24:00 PM 47.1729 -40.3877 264° West  Level Estimated
Wed 12:25:00 PM 47.1596 -40.5672 264° West  Level Estimated
Wed 12:26:00 PM 47.1460 -40.7467 264° West  Level Estimated
Wed 12:27:00 PM 47.1321 -40.9260 264° West  Level Estimated
Wed 12:28:00 PM 47.1180 -41.1052 263° West  Level Estimated
Wed 12:29:00 PM 47.1036 -41.2843 263° West  Level Estimated
Wed 12:30:00 PM 47.0889 -41.4634 263° West  Level Estimated
Wed 12:31:00 PM 47.0739 -41.6423 263° West  Level Estimated
Wed 12:32:00 PM 47.0587 -41.8211 263° West  Level Estimated
Wed 12:33:00 PM 47.0431 -41.9999 263° West  Level Estimated
Wed 12:34:00 PM 47.0273 -42.1785 263° West  Level Estimated
Wed 12:35:00 PM 47.0112 -42.3570 263° West  Level Estimated
Wed 12:36:00 PM 46.9949 -42.5354 262° West  Level Estimated
Wed 12:37:00 PM 46.9782 -42.7137 262° West  Level Estimated
Wed 12:38:00 PM 46.9613 -42.8919 262° West  Level Estimated
Wed 12:39:00 PM 46.9441 -43.0700 262° West  Level Estimated
Wed 12:40:00 PM 46.9266 -43.2479 262° West  Level Estimated
Wed 12:41:00 PM 46.9089 -43.4258 262° West  Level Estimated
Wed 12:42:00 PM 46.8909 -43.6035 262° West  Level Estimated
Wed 12:43:00 PM 46.8726 -43.7811 261° West  Level Estimated
Wed 12:44:00 PM 46.8540 -43.9586 261° West  Level Estimated
Wed 12:45:00 PM 46.8352 -44.1359 261° West  Level Estimated
Wed 12:46:00 PM 46.8160 -44.3131 261° West  Level Estimated
Wed 12:47:00 PM 46.7966 -44.4903 261° West  Level Estimated
Wed 12:48:00 PM 46.7770 -44.6672 261° West  Level Estimated
Wed 12:49:00 PM 46.7570 -44.8441 261° West  Level Estimated
Wed 12:50:00 PM 46.7368 -45.0208 261° West  Level Estimated
Wed 12:51:00 PM 46.7164 -45.1974 260° West  Level Estimated
Wed 12:52:00 PM 46.6956 -45.3738 260° West  Level Estimated
Wed 12:53:00 PM 46.6746 -45.5502 260° West  Level Estimated
Wed 12:54:00 PM 46.6533 -45.7263 260° West  Level Estimated
Wed 12:55:00 PM 46.6317 -45.9024 260° West  Level Estimated
Wed 12:56:00 PM 46.6099 -46.0782 260° West  Level Estimated
Wed 12:57:00 PM 46.5878 -46.2540 260° West  Level Estimated
Wed 12:58:00 PM 46.5654 -46.4296 260° West  Level Estimated
Wed 12:59:00 PM 46.5428 -46.6051 259° West  Level Estimated
Wed 01:00:00 PM 46.5199 -46.7804 259° West  Level Estimated
Wed 01:01:00 PM 46.4967 -46.9555 259° West  Level Estimated
Wed 01:02:00 PM 46.4733 -47.1305 259° West  Level Estimated
Wed 01:03:00 PM 46.4496 -47.3054 259° West  Level Estimated
Wed 01:04:00 PM 46.4256 -47.4801 259° West  Level Estimated
Wed 01:05:00 PM 46.4013 -47.6547 259° West  Level Estimated
Wed 01:06:00 PM 46.3768 -47.8291 259° West  Level Estimated
Wed 01:07:00 PM 46.3521 -48.0033 258° West  Level Estimated
Wed 01:08:00 PM 46.3270 -48.1774 258° West  Level Estimated
Wed 01:09:00 PM 46.3017 -48.3513 258° West  Level Estimated
Wed 01:10:00 PM 46.2762 -48.5251 258° West  Level Estimated
Wed 01:10:42 PM 44.3500 -48.5667 252° West 444 511 37,000  Level New York Oceanic (ODAPS)
Wed 01:11:00 PM 46.2503 -48.6987 258° West  Level Estimated
Wed 01:12:00 PM 46.2242 -48.8721 258° West  Level Estimated
Wed 01:13:00 PM 46.1979 -49.0454 258° West  Level Estimated
Wed 01:14:00 PM 46.1713 -49.2183 258° West  Level Estimated
Wed 01:15:00 PM 46.1445 -49.3910 257° West  Level Estimated
Wed 01:16:00 PM 46.1173 -49.5636 257° West  Level Estimated
Wed 01:17:00 PM 44.0892 -49.6433 251° West 444 511 37,000  Level FlightAware Transoceanic
Wed 01:18:00 PM 44.0447 -49.8218 251° West 444 511 37,000  Level FlightAware Transoceanic
Wed 01:19:00 PM 44.0000 -50.0000 274° West 444 511 37,000  Level FlightAware Transoceanic
Wed 01:20:00 PM 44.0088 -50.1654 274° West 444 511 37,000  Level FlightAware Transoceanic
Wed 01:20:54 PM 44.0000 -50.0000 274° West 420 483 37,000  Level New York Oceanic (ODAPS)
Wed 01:21:00 PM 44.0173 -50.3307 274° West 444 511 37,000  Level FlightAware Transoceanic
Wed 01:22:00 PM 44.0256 -50.4962 274° West 444 511 37,000  Level FlightAware Transoceanic
Wed 01:23:00 PM 44.0337 -50.6617 274° West 444 511 37,000  Level FlightAware Transoceanic
Wed 01:24:00 PM 44.0415 -50.8272 274° West 444 511 37,000  Level FlightAware Transoceanic
Wed 01:25:00 PM 44.0491 -50.9928 274° West 444 511 37,000  Level FlightAware Transoceanic
Wed 01:26:00 PM 44.0564 -51.1584 273° West 444 511 37,000  Level FlightAware Transoceanic
Wed 01:26:20 PM 44.0333 -51.0667 273° West 440 506 37,000  Level Gander Center
Wed 01:27:00 PM 44.0604 -51.2505 273° West 420 483 37,000  Level FlightAware Transoceanic
Wed 01:27:20 PM 44.0333 -51.2333 270° West 420 483 37,000  Level Gander Center
Wed 01:28:00 PM 44.0670 -51.4070 273° West 420 483 37,000  Level FlightAware Transoceanic
Wed 01:28:20 PM 44.0500 -51.4000 278° West 420 483 37,000  Level Gander Center
Wed 01:29:00 PM 44.0734 -51.5635 273° West 420 483 37,000  Level FlightAware Transoceanic
Wed 01:29:20 PM 44.0500 -51.5333 270° West 430 495 37,000  Level Gander Center
Wed 01:30:00 PM 44.0795 -51.7200 273° West 420 483 37,000  Level FlightAware Transoceanic
Wed 01:30:20 PM 44.0667 -51.7167 277° West 430 495 37,000  Level Gander Center
Wed 01:30:59 PM 44.0833 -51.8667 273° West 423 487 37,000  Level New York Oceanic (ODAPS)
Wed 01:31:00 PM 44.0855 -51.8766 273° West 420 483 37,000  Level FlightAware Transoceanic
Wed 01:31:20 PM 44.0667 -51.8833 273° West 410 472 37,000  Level Gander Center
Wed 01:32:20 PM 44.0833 -52.0500 278° West 430 495 37,000  Level Gander Center
Wed 01:33:20 PM 44.0833 -52.2000 270° West 430 495 37,000  Level Gander Center
Wed 01:34:20 PM 44.0833 -52.3667 270° West 430 495 37,000  Level Gander Center
Wed 01:35:20 PM 44.0833 -52.5333 270° West 420 483 37,000  Level Gander Center
Wed 01:36:20 PM 44.1000 -52.6833 279° West 420 483 37,000  Level Gander Center
Wed 01:37:20 PM 44.1000 -52.8500 270° West 420 483 37,000  Level Gander Center
Wed 01:38:20 PM 44.1167 -53.0167 278° West 420 483 37,000  Level Gander Center
Wed 01:39:20 PM 44.1000 -53.1833 262° West 420 483 37,000  Level Gander Center
Wed 01:40:20 PM 44.1167 -53.3333 279° West 420 483 37,000  Level Gander Center
Wed 01:41:20 PM 44.1333 -53.5000 278° West 430 495 37,000  Level Gander Center
Wed 01:42:20 PM 44.1167 -53.6667 262° West 420 483 37,000  Level Gander Center
Wed 01:43:20 PM 44.1333 -53.8333 278° West 420 483 37,000  Level Gander Center
Wed 01:44:20 PM 44.1333 -53.9833 270° West 410 472 37,000  Level Gander Center
Wed 01:45:20 PM 44.1333 -54.1500 270° West 420 483 37,000  Level Gander Center
Wed 01:46:20 PM 44.1333 -54.3333 270° West 440 506 37,000  Level Gander Center
Wed 01:47:20 PM 44.1500 -54.5000 278° West 410 472 37,000  Level Gander Center
Wed 01:48:20 PM 44.1333 -54.6333 260° West 430 495 37,000  Level Gander Center
Wed 01:49:20 PM 44.1500 -54.8500 276° West 430 495 37,000  Level Gander Center
Wed 01:50:20 PM 44.1500 -54.9833 270° West 430 495 37,000  Level Gander Center
Wed 01:52:20 PM 44.1167 -55.3167 262° West 400 460 37,000  Level Gander Center
Wed 01:53:20 PM 44.1000 -55.4833 262° West 430 495 37,000  Level Gander Center
Wed 01:54:20 PM 44.1000 -55.6500 270° West 430 495 37,000  Level Gander Center
Wed 01:55:27 PM 44.0667 -55.8333 256° West 430 495 37,000  Level Moncton Center
Wed 01:56:20 PM 44.0667 -55.9667 270° West 430 495 37,000  Level Gander Center
Wed 02:02:17 PM 44.0020 -56.9860 270° West 428 493 37,000  Level FlightAware ADS-B
Wed 02:03:02 PM 43.9950 -57.1100 266° West 428 493 37,000  Level FlightAware ADS-B
Wed 02:03:37 PM 43.9910 -57.1940 266° West 428 493 37,000  Level FlightAware ADS-B
Wed 02:04:22 PM 43.9860 -57.3280 267° West 431 496 37,000  Level FlightAware ADS-B
Wed 02:05:02 PM 43.9810 -57.4250 266° West 431 496 37,000  Level FlightAware ADS-B
Wed 02:05:57 PM 43.9750 -57.5840 267° West 432 497 37,000  Level FlightAware ADS-B
Wed 02:06:37 PM 43.9700 -57.6780 266° West 432 497 37,000  Level FlightAware ADS-B
Wed 02:07:27 PM 43.9630 -57.8400 267° West 433 498 37,000  Level FlightAware ADS-B
Wed 02:08:02 PM 43.9590 -57.9280 266° West 433 498 37,000 -353 Level FlightAware ADS-B
Wed 02:08:52 PM 43.9520 -58.0650 266° West 433 498 36,500 -333 Descending FlightAware ADS-B
Wed 02:09:32 PM 43.9470 -58.1590 266° West 433 498 36,500  Level FlightAware ADS-B
Wed 02:10:12 PM 43.9420 -58.2530 266° West 433 498 36,500  Level FlightAware ADS-B
Wed 02:10:52 PM 43.9380 -58.3480 267° West 433 498 36,500 -300 Level FlightAware ADS-B
Wed 02:11:52 PM 43.9250 -58.5820 266° West 437 503 36,000 -300 Descending FlightAware ADS-B
Wed 02:12:32 PM 43.9190 -58.6920 266° West 438 504 36,000  Level FlightAware ADS-B
Wed 02:13:17 PM 43.9130 -58.8080 266° West 440 506 36,000  Level FlightAware ADS-B
Wed 02:13:57 PM 43.9060 -58.9280 265° West 443 510 36,000  Level FlightAware ADS-B
Wed 02:14:37 PM 43.8990 -59.0310 265° West 444 511 36,000  Level FlightAware ADS-B
Wed 02:15:17 PM 43.8930 -59.1280 265° West 444 511 36,000  Level FlightAware ADS-B
Wed 02:15:57 PM 43.8870 -59.2240 265° West 444 511 36,000  Level FlightAware ADS-B
Wed 02:16:37 PM 43.8810 -59.3210 265° West 444 511 36,000  Level FlightAware ADS-B
Wed 02:17:27 PM 43.8740 -59.4420 265° West 444 511 36,000  Level FlightAware ADS-B
Wed 02:17:57 PM 43.8690 -59.5140 265° West 444 511 36,000  Level FlightAware ADS-B
Wed 02:18:37 PM 43.8630 -59.6100 265° West 444 511 36,000  Level FlightAware ADS-B
Wed 02:19:27 PM 43.8550 -59.7310 265° West 444 511 36,000  Level FlightAware ADS-B
Wed 02:20:07 PM 43.8490 -59.8280 265° West 444 511 36,000  Level FlightAware ADS-B
Wed 02:20:47 PM 43.8430 -59.9240 265° West 444 511 36,000  Level FlightAware ADS-B
Wed 02:21:27 PM 43.8370 -60.0200 265° West 444 511 36,000  Level FlightAware ADS-B
Wed 02:22:07 PM 43.8310 -60.1170 265° West 444 511 36,000  Level FlightAware ADS-B
Wed 02:22:57 PM 43.8230 -60.2370 265° West 444 511 36,000  Level FlightAware ADS-B
Wed 02:23:37 PM 43.8170 -60.3340 265° West 444 511 36,000  Level FlightAware ADS-B
Wed 02:24:20 PM 43.7833 -60.6333 265° West 440 506 36,000  Level Gander Center
Wed 02:25:20 PM 43.7667 -60.8167 263° West 450 518 36,000  Level Gander Center
Wed 02:26:20 PM 43.7667 -60.9833 270° West 440 506 36,000  Level Gander Center
Wed 02:27:20 PM 43.7500 -61.1667 263° West 440 506 36,000  Level Gander Center
Wed 02:28:20 PM 43.7333 -61.3333 262° West 440 506 36,000  Level Gander Center
Wed 02:29:20 PM 43.7167 -61.4833 261° West 440 506 36,000  Level Gander Center
Wed 02:30:20 PM 43.7000 -61.6500 262° West 430 495 36,000  Level Gander Center
Wed 02:31:20 PM 43.7000 -61.8333 270° West 430 495 36,000  Level Gander Center
Wed 02:32:20 PM 43.6833 -62.0000 262° West 430 495 36,000  Level Gander Center
Wed 02:33:20 PM 43.6500 -62.1333 251° West 430 495 36,000  Level Gander Center
Wed 02:34:20 PM 43.6333 -62.3167 263° West 440 506 36,000  Level Gander Center
Wed 02:35:20 PM 43.6333 -62.4833 270° West 430 495 36,000  Level Gander Center
Wed 02:36:20 PM 43.6167 -62.6333 261° West 430 495 36,000  Level Gander Center
Wed 02:37:20 PM 43.6000 -62.8000 262° West 440 506 36,000  Level Gander Center
Wed 02:38:20 PM 43.5833 -62.9833 263° West 430 495 36,000  Level Gander Center
Wed 02:39:20 PM 43.5667 -63.1500 262° West 440 506 36,000  Level Gander Center
Wed 02:40:20 PM 43.5667 -63.3000 270° West 450 518 36,000  Level Gander Center
Wed 02:41:27 PM 43.5333 -63.5000 257° West 440 506 36,000  Level Moncton Center
Wed 02:42:27 PM 43.5167 -63.6667 262° West 440 506 36,000  Level Moncton Center
Wed 02:48:12 PM 43.4340 -64.6250 262° West 422 486 36,000  Level FlightAware ADS-B
Wed 02:48:57 PM 43.4220 -64.7320 261° West 421 484 36,000  Level FlightAware ADS-B
Wed 02:49:37 PM 43.4090 -64.8520 262° West 423 487 36,000  Level FlightAware ADS-B
Wed 02:50:22 PM 43.3960 -64.9700 261° West 424 488 36,000  Level FlightAware ADS-B
Wed 02:51:02 PM 43.3840 -65.0780 261° West 427 491 36,000  Level FlightAware ADS-B
Wed 02:51:47 PM 43.3700 -65.1970 261° West 429 494 36,000  Level FlightAware ADS-B
Wed 02:52:22 PM 43.3590 -65.2920 261° West 431 496 36,000  Level FlightAware ADS-B
Wed 02:53:07 PM 43.3460 -65.4130 262° West 432 497 36,000  Level FlightAware ADS-B
Wed 02:53:52 PM 43.3320 -65.5330 261° West 432 497 36,000  Level FlightAware ADS-B
Wed 02:54:32 PM 43.3180 -65.6440 260° West 436 502 36,000  Level FlightAware ADS-B
Wed 02:56:12 PM 43.2870 -65.9100 261° West 447 514 36,000  Level FlightAware ADS-B
Wed 02:57:22 PM 43.2630 -66.1080 261° West 453 521 36,000  Level FlightAware ADS-B
Wed 02:58:42 PM 43.2350 -66.3350 260° West 456 525 36,000  Level FlightAware ADS-B
Wed 02:59:52 PM 43.2100 -66.5360 260° West 457 526 36,000  Level FlightAware ADS-B
Wed 03:01:07 PM 43.1820 -66.7540 260° West 471 542 36,000  Level FlightAware ADS-B
Wed 03:01:47 PM 43.1670 -66.8710 260° West 471 542 36,000  Level FlightAware ADS-B
Wed 03:02:27 PM 43.1540 -66.9710 260° West 471 542 36,000  Level FlightAware ADS-B
Wed 03:03:07 PM 43.1410 -67.0710 260° West 471 542 36,000  Level FlightAware ADS-B
Wed 03:03:37 PM 43.1310 -67.1460 260° West 471 542 36,000  Level FlightAware ADS-B
Wed 03:05:47 PM 43.0490 -67.5570 255° West 36,000  Level FlightAware ADS-B
Wed 03:07:07 PM 43.0040 -67.7970 256° West 471 542 36,000  Level FlightAware ADS-B
Wed 03:08:17 PM 42.9670 -67.9970 256° West 470 541 36,000  Level FlightAware ADS-B
Wed 03:08:52 PM 42.9500 -68.0880 256° West 471 542 36,000  Level FlightAware ADS-B
Wed 03:09:42 PM 42.9210 -68.2400 255° West 466 536 36,000  Level FlightAware ADS-B
Wed 03:10:27 PM 42.8960 -68.3670 255° West 465 535 36,000  Level FlightAware ADS-B
Wed 03:11:22 PM 42.8660 -68.5230 255° West 468 539 36,000  Level FlightAware ADS-B
Wed 03:11:47 PM 42.8530 -68.5890 255° West 470 541 36,000  Level FlightAware ADS-B
Wed 03:12:32 PM 42.8270 -68.7240 255° West 468 539 36,000  Level FlightAware ADS-B
Wed 03:13:07 PM 42.8080 -68.8210 255° West 463 533 36,000  Level FlightAware ADS-B
Wed 03:13:47 PM 42.7860 -68.9340 255° West 453 521 36,000  Level FlightAware ADS-B
Wed 03:14:27 PM 42.7660 -69.0350 255° West 451 519 36,000  Level FlightAware ADS-B
Wed 03:15:02 PM 42.7460 -69.1340 255° West 36,000  Level FlightAware ADS-B
Wed 03:16:02 PM 42.7130 -69.2970 255° West 448 516 36,000  Level FlightAware ADS-B
Wed 03:16:37 PM 42.6920 -69.4000 255° West 455 524 36,000  Level FlightAware ADS-B
Wed 03:17:22 PM 42.6680 -69.5210 255° West 455 524 36,000  Level FlightAware ADS-B
Wed 03:18:02 PM 42.6450 -69.6350 255° West 456 525 36,000  Level FlightAware ADS-B
Wed 03:18:42 PM 42.6220 -69.7460 254° West 461 531 36,000  Level FlightAware ADS-B
Wed 03:19:27 PM 42.5960 -69.8690 254° West 464 534 36,000  Level FlightAware ADS-B
Wed 03:20:07 PM 42.5700 -69.9940 254° West 466 536 36,000  Level FlightAware ADS-B
Wed 03:20:52 PM 42.5440 -70.1190 254° West 465 535 36,000  Level FlightAware ADS-B
Wed 03:21:32 PM 42.5210 -70.2310 254° West 462 532 36,000  Level FlightAware ADS-B
Wed 03:22:12 PM 42.5020 -70.3200 254° West 461 531 36,000  Level FlightAware ADS-B
Wed 03:22:57 PM 42.4710 -70.4660 254° West 450 518 36,000  Level FlightAware ADS-B
Wed 03:23:37 PM 42.4470 -70.5740 253° West 450 518 36,000  Level FlightAware ADS-B
Wed 03:24:22 PM 42.4220 -70.6900 254° West 448 516 36,000  Level FlightAware ADS-B
Wed 03:25:02 PM 42.3990 -70.7990 254° West 446 513 36,000  Level FlightAware ADS-B
Wed 03:25:42 PM 42.3780 -70.8970 254° West 446 513 36,000  Level FlightAware ADS-B
Wed 03:26:27 PM 42.3540 -71.0280 256° West 443 510 36,000  Level FlightAware ADS-B
Wed 03:27:07 PM 42.3420 -71.1350 261° West 444 511 36,000  Level FlightAware ADS-B
Wed 03:27:52 PM 42.3290 -71.2590 262° West 444 511 36,000  Level FlightAware ADS-B
Wed 03:28:32 PM 42.3170 -71.3700 262° West 444 511 36,000  Level FlightAware ADS-B
Wed 03:29:12 PM 42.3050 -71.4800 262° West 443 510 36,000  Level FlightAware ADS-B
Wed 03:29:57 PM 42.2910 -71.6010 261° West 445 512 36,000  Level FlightAware ADS-B
Wed 03:30:37 PM 42.2790 -71.7110 262° West 448 516 36,000  Level FlightAware ADS-B
Wed 03:31:22 PM 42.2650 -71.8390 262° West 452 520 36,000  Level FlightAware ADS-B
Wed 03:32:02 PM 42.2520 -71.9500 261° West 455 524 36,000  Level FlightAware ADS-B
Wed 03:32:42 PM 42.2390 -72.0630 261° West 454 522 36,000  Level FlightAware ADS-B
Wed 03:33:27 PM 42.2250 -72.1870 261° West 453 521 36,000  Level FlightAware ADS-B
Wed 03:34:07 PM 42.2090 -72.2980 259° West 453 521 36,000  Level FlightAware ADS-B
Wed 03:34:52 PM 42.1760 -72.4180 250° West 456 525 36,000  Level FlightAware ADS-B
Wed 03:35:32 PM 42.1410 -72.5240 246° West 459 528 36,000  Level FlightAware ADS-B
Wed 03:36:12 PM 42.1060 -72.6270 245° Southwest 459 528 36,000  Level FlightAware ADS-B
Wed 03:36:57 PM 42.0680 -72.7400 246° West 456 525 36,000  Level FlightAware ADS-B
Wed 03:37:37 PM 42.0360 -72.8350 246° West 456 525 36,000  Level FlightAware ADS-B
Wed 03:38:17 PM 42.0050 -72.9220 244° Southwest 456 525 36,000  Level FlightAware ADS-B
Wed 03:39:12 PM 41.9520 -73.0730 245° Southwest 451 519 36,000  Level FlightAware ADS-B
Wed 03:39:21 PM 41.9218 -73.0958 209° Southwest 463 533 36,000  Level FlightAware ADS-B
Wed 03:39:52 PM 41.8658 -73.1443 213° Southwest 465 535 36,000  Level FlightAware ADS-B
Wed 03:40:30 PM 41.7965 -73.2022 212° Southwest 465 535 36,000  Level FlightAware ADS-B
Wed 03:41:07 PM 41.7293 -73.2580 212° Southwest 467 537 36,000  Level FlightAware ADS-B
Wed 03:41:52 PM 41.6504 -73.3332 215° Southwest 464 534 36,000  Level FlightAware ADS-B
Wed 03:42:04 PM 41.6328 -73.3566 225° Southwest 458 527 36,000  Level FlightAware ADS-B
Wed 03:42:34 PM 41.5907 -73.4193 228° Southwest 457 526 36,000  Level FlightAware ADS-B
Wed 03:43:04 PM 41.5482 -73.4853 229° Southwest 457 526 36,000 774 Level FlightAware ADS-B
Wed 03:43:36 PM 41.5044 -73.5535 229° Southwest 453 521 36,800 1,457 Climbing FlightAware ADS-B
Wed 03:44:14 PM 41.4532 -73.6321 229° Southwest 451 519 37,700 1,014 Climbing FlightAware ADS-B
Wed 03:44:47 PM 41.4074 -73.7018 229° Southwest 446 513 38,000 295 Climbing FlightAware ADS-B
Wed 03:45:15 PM 41.3696 -73.7595 229° Southwest 443 510 38,000  Level FlightAware ADS-B
Wed 03:45:21 PM 41.3626 -73.7701 229° Southwest 444 511 38,000  Level FlightAware ADS-B
Wed 03:45:49 PM 41.3242 -73.8281 229° Southwest 446 513 38,000  Level FlightAware ADS-B
Wed 03:45:54 PM 41.3176 -73.8378 228° Southwest 445 512 38,000  Level FlightAware ADS-B
Wed 03:46:20 PM 41.2819 -73.8903 228° Southwest 447 514 38,000  Level FlightAware ADS-B
Wed 03:46:32 PM 41.2652 -73.9146 228° Southwest 447 514 38,000  Level FlightAware ADS-B
Wed 03:47:04 PM 41.2199 -73.9811 228° Southwest 450 518 38,000  Level FlightAware ADS-B
Wed 03:47:41 PM 41.1682 -74.0570 228° Southwest 451 519 38,000  Level FlightAware ADS-B
Wed 03:48:13 PM 41.1246 -74.1214 228° Southwest 451 519 38,000  Level FlightAware ADS-B
Wed 03:48:44 PM 41.0843 -74.1877 231° Southwest 451 519 38,000  Level FlightAware ADS-B
Wed 03:49:14 PM 41.0453 -74.2525 231° Southwest 450 518 38,000  Level FlightAware ADS-B
Wed 03:49:46 PM 41.0026 -74.3223 231° Southwest 450 518 38,000  Level FlightAware ADS-B
Wed 03:50:17 PM 40.9624 -74.3871 231° Southwest 448 516 38,000  Level FlightAware ADS-B
Wed 03:50:53 PM 40.9157 -74.4619 230° Southwest 442 509 38,000  Level FlightAware ADS-B
Wed 03:51:24 PM 40.8747 -74.5271 230° Southwest 442 509 38,000  Level FlightAware ADS-B
Wed 03:51:55 PM 40.8342 -74.5920 230° Southwest 449 517 38,000  Level FlightAware ADS-B
Wed 03:52:31 PM 40.7870 -74.6671 230° Southwest 447 514 38,000  Level FlightAware ADS-B
Wed 03:53:02 PM 40.7459 -74.7328 230° Southwest 445 512 38,000  Level FlightAware ADS-B
Wed 03:53:22 PM 40.7193 -74.7749 230° Southwest 446 513 38,000  Level FlightAware ADS-B
Wed 03:53:52 PM 40.6801 -74.8373 230° Southwest 445 512 38,000  Level FlightAware ADS-B
Wed 03:54:22 PM 40.6404 -74.9001 230° Southwest 446 513 38,000  Level FlightAware ADS-B
Wed 03:54:52 PM 40.6012 -74.9623 230° Southwest 443 510 38,000  Level FlightAware ADS-B
Wed 03:55:23 PM 40.5608 -75.0261 230° Southwest 438 504 38,000  Level FlightAware ADS-B
Wed 03:55:56 PM 40.5195 -75.0914 230° Southwest 426 490 38,000  Level FlightAware ADS-B
Wed 03:56:27 PM 40.4805 -75.1539 231° Southwest 426 490 38,000  Level FlightAware ADS-B
Wed 03:56:56 PM 40.4442 -75.2109 230° Southwest 430 495 38,000  Level FlightAware ADS-B
Wed 03:57:27 PM 40.4043 -75.2744 230° Southwest 430 495 38,000  Level FlightAware ADS-B
Wed 03:57:59 PM 40.3637 -75.3382 230° Southwest 428 493 38,000  Level FlightAware ADS-B
Wed 03:58:31 PM 40.3242 -75.4002 230° Southwest 428 493 38,000  Level FlightAware ADS-B
Wed 03:59:01 PM 40.2854 -75.4613 230° Southwest 429 494 38,000  Level FlightAware ADS-B
Wed 03:59:32 PM 40.2458 -75.5234 230° Southwest 428 493 38,000  Level FlightAware ADS-B
Wed 03:59:59 PM 40.2137 -75.5785 233° Southwest 423 487 38,000  Level FlightAware ADS-B
Wed 04:00:30 PM 40.1803 -75.6433 236° Southwest 422 486 38,000  Level FlightAware ADS-B
Wed 04:01:04 PM 40.1443 -75.7148 237° Southwest 419 482 38,000  Level FlightAware ADS-B
Wed 04:01:34 PM 40.1132 -75.7773 237° Southwest 409 471 38,000  Level FlightAware ADS-B
Wed 04:02:08 PM 40.0778 -75.8478 237° Southwest 404 465 38,000  Level FlightAware ADS-B
Wed 04:02:40 PM 40.0457 -75.9109 236° Southwest 403 464 38,000  Level FlightAware ADS-B
Wed 04:03:15 PM 40.0096 -75.9818 236° Southwest 403 464 38,000  Level FlightAware ADS-B
Wed 04:03:48 PM 39.9756 -76.0488 237° Southwest 401 461 38,000  Level FlightAware ADS-B
Wed 04:04:19 PM 39.9439 -76.1104 236° Southwest 402 463 38,000  Level FlightAware ADS-B
Wed 04:04:50 PM 39.9116 -76.1741 237° Southwest 400 460 38,000  Level FlightAware ADS-B
Wed 04:05:21 PM 39.8800 -76.2358 236° Southwest 402 463 38,000  Level FlightAware ADS-B
Wed 04:05:57 PM 39.8424 -76.3090 236° Southwest 407 468 38,000  Level FlightAware ADS-B
Wed 04:06:27 PM 39.8108 -76.3702 236° Southwest 406 467 38,000  Level FlightAware ADS-B
Wed 04:06:58 PM 39.7788 -76.4328 236° Southwest 402 463 38,000  Level FlightAware ADS-B
Wed 04:07:32 PM 39.7443 -76.4996 236° Southwest 400 460 38,000  Level FlightAware ADS-B
Wed 04:08:05 PM 39.7103 -76.5653 236° Southwest 399 459 38,000  Level FlightAware ADS-B
Wed 04:08:35 PM 39.6794 -76.6252 236° Southwest 398 458 38,000  Level FlightAware ADS-B
Wed 04:09:07 PM 39.6466 -76.6883 236° Southwest 396 456 38,000  Level FlightAware ADS-B
Wed 04:09:38 PM 39.6148 -76.7494 236° Southwest 402 463 38,000  Level FlightAware ADS-B
Wed 04:10:09 PM 39.5829 -76.8105 236° Southwest 404 465 38,000  Level FlightAware ADS-B
Wed 04:10:40 PM 39.5504 -76.8727 236° Southwest 403 464 38,000  Level FlightAware ADS-B
Wed 04:11:13 PM 39.5159 -76.9387 236° Southwest 400 460 38,000  Level FlightAware ADS-B
Wed 04:11:37 PM 39.4872 -76.9838 231° Southwest 403 464 38,000  Level FlightAware ADS-B
Wed 04:12:08 PM 39.4444 -77.0328 221° Southwest 408 470 38,000  Level FlightAware ADS-B
Wed 04:12:39 PM 39.3986 -77.0810 219° Southwest 408 470 38,000  Level FlightAware ADS-B
Wed 04:13:10 PM 39.3542 -77.1271 219° Southwest 405 466 38,000  Level FlightAware ADS-B
Wed 04:13:40 PM 39.3095 -77.1736 219° Southwest 406 467 38,000  Level FlightAware ADS-B
Wed 04:14:11 PM 39.2651 -77.2200 219° Southwest 409 471 38,000  Level FlightAware ADS-B
Wed 04:14:47 PM 39.2117 -77.2756 219° Southwest 409 471 38,000  Level FlightAware ADS-B
Wed 04:15:18 PM 39.1656 -77.3240 219° Southwest 411 473 38,000  Level FlightAware ADS-B
Wed 04:15:48 PM 39.1213 -77.3703 219° Southwest 409 471 38,000  Level FlightAware ADS-B
Wed 04:16:20 PM 39.0746 -77.4192 219° Southwest 408 470 38,000  Level FlightAware ADS-B
Wed 04:16:50 PM 39.0306 -77.4648 219° Southwest 409 471 38,000  Level FlightAware ADS-B
Wed 04:17:31 PM 38.9714 -77.5271 219° Southwest 409 471 38,000  Level FlightAware ADS-B
Wed 04:18:16 PM 38.9121 -77.6050 226° Southwest 406 467 38,000  Level FlightAware ADS-B
Wed 04:18:55 PM 38.8664 -77.6744 230° Southwest 400 460 38,000  Level FlightAware ADS-B
Wed 04:19:55 PM 38.7944 -77.7839 230° Southwest 398 458 38,000  Level FlightAware ADS-B
Wed 04:20:37 PM 38.7540 -77.8450 230° Southwest 402 463 38,000  Level FlightAware ADS-B
Wed 04:21:07 PM 38.7160 -77.9020 229° Southwest 403 464 38,000  Level FlightAware ADS-B
Wed 04:21:52 PM 38.6610 -77.9850 230° Southwest 407 468 38,000  Level FlightAware ADS-B
Wed 04:22:42 PM 38.6030 -78.0700 229° Southwest 408 470 38,000  Level FlightAware ADS-B
Wed 04:23:32 PM 38.5450 -78.1570 230° Southwest 407 468 38,000  Level FlightAware ADS-B
Wed 04:24:17 PM 38.4850 -78.2480 230° Southwest 400 460 38,000  Level FlightAware ADS-B
Wed 04:25:02 PM 38.4290 -78.3300 229° Southwest 404 465 38,000  Level FlightAware ADS-B
Wed 04:29:37 PM 38.0960 -78.8220 229° Southwest 397 457 38,000  Level FlightAware ADS-B
Wed 04:34:42 PM 37.7310 -79.3420 229° Southwest 38,000  Level FlightAware ADS-B
Wed 04:35:02 PM 37.7110 -79.3690 227° Southwest 382 440 38,000  Level FlightAware ADS-B
Wed 04:35:47 PM 37.6620 -79.4360 227° Southwest 382 440 38,000  Level FlightAware ADS-B
Wed 04:36:27 PM 37.6210 -79.4920 227° Southwest 382 440 38,000  Level FlightAware ADS-B
Wed 04:37:07 PM 37.5800 -79.5470 227° Southwest 382 440 38,000  Level FlightAware ADS-B
Wed 04:37:47 PM 37.5390 -79.6030 227° Southwest 382 440 38,000  Level FlightAware ADS-B
Wed 04:38:27 PM 37.4980 -79.6580 227° Southwest 382 440 38,000  Level FlightAware ADS-B
Wed 04:39:07 PM 37.4570 -79.7130 227° Southwest 382 440 38,000  Level FlightAware ADS-B
Wed 04:39:57 PM 37.4060 -79.7820 227° Southwest 382 440 38,000  Level FlightAware ADS-B
Wed 04:40:37 PM 37.3650 -79.8380 227° Southwest 382 440 38,000  Level FlightAware ADS-B
Wed 04:41:17 PM 37.3240 -79.8930 227° Southwest 382 440 38,000  Level FlightAware ADS-B
Wed 04:41:57 PM 37.2830 -79.9480 227° Southwest 382 440 38,000  Level FlightAware ADS-B
Wed 04:42:47 PM 37.2320 -80.0170 227° Southwest 382 440 38,000  Level FlightAware ADS-B
Wed 04:43:27 PM 37.1910 -80.0720 227° Southwest 382 440 38,000  Level FlightAware ADS-B
Wed 04:44:07 PM 37.1500 -80.1280 227° Southwest 382 440 38,000  Level FlightAware ADS-B
Wed 04:44:47 PM 37.1090 -80.1830 227° Southwest 382 440 38,000  Level FlightAware ADS-B
Wed 04:45:05 PM 37.0014 -80.3353 227° Southwest 381 438 38,000  Level Atlanta Center
Wed 04:46:05 PM 36.9311 -80.4294 227° Southwest 381 438 38,000  Level Atlanta Center
Wed 04:47:05 PM 36.8567 -80.5261 226° Southwest 381 438 38,000  Level Atlanta Center
Wed 04:48:05 PM 36.7864 -80.6200 227° Southwest 381 438 38,000  Level Atlanta Center
Wed 04:53:46 PM 36.3723 -81.1726 227° Southwest 383 441 38,000  Level FlightAware ADS-B
Wed 04:54:22 PM 36.3282 -81.2303 227° Southwest 383 441 38,000  Level FlightAware ADS-B
Wed 04:54:56 PM 36.2859 -81.2855 226° Southwest 383 441 38,000  Level FlightAware ADS-B
Wed 04:58:07 PM 36.0540 -81.5868 226° Southwest 381 438 38,000  Level FlightAware ADS-B
Wed 04:58:37 PM 36.0171 -81.6344 226° Southwest 381 438 38,000  Level FlightAware ADS-B
Wed 04:59:17 PM 35.9688 -81.6967 226° Southwest 378 435 38,000  Level FlightAware ADS-B
Wed 04:59:47 PM 35.9319 -81.7442 226° Southwest 379 436 38,000  Level FlightAware ADS-B
Wed 05:00:18 PM 35.8952 -81.7914 226° Southwest 379 436 38,000  Level FlightAware ADS-B
Wed 05:00:49 PM 35.8569 -81.8406 226° Southwest 379 436 38,000  Level FlightAware ADS-B
Wed 05:01:19 PM 35.8206 -81.8872 226° Southwest 376 433 38,000 -387 Level FlightAware ADS-B
Wed 05:01:51 PM 35.7829 -81.9355 226° Southwest 374 430 37,600 -1,636 Descending FlightAware ADS-B
Wed 05:02:25 PM 35.7412 -81.9889 226° Southwest 376 433 36,200 -2,215 Descending FlightAware ADS-B
Wed 05:02:56 PM 35.7034 -82.0370 226° Southwest 392 451 35,200 -1,180 Descending FlightAware ADS-B
Wed 05:03:26 PM 35.6649 -82.0859 226° Southwest 401 461 35,000 -197 Descending FlightAware ADS-B
Wed 05:03:57 PM 35.6254 -82.1361 226° Southwest 402 463 35,000  Level FlightAware ADS-B
Wed 05:04:29 PM 35.5841 -82.1886 226° Southwest 402 463 35,000  Level FlightAware ADS-B
Wed 05:05:00 PM 35.5444 -82.2392 226° Southwest 402 463 35,000  Level FlightAware ADS-B
Wed 05:05:30 PM 35.5053 -82.2887 226° Southwest 405 466 35,000 -100 Level FlightAware ADS-B
Wed 05:06:00 PM 35.4656 -82.3388 226° Southwest 402 463 34,900 -387 Descending FlightAware ADS-B
Wed 05:06:32 PM 35.4248 -82.3904 226° Southwest 390 449 34,600 -952 Descending FlightAware ADS-B
Wed 05:07:03 PM 35.3871 -82.4380 226° Southwest 382 440 33,900 -1,770 Descending FlightAware ADS-B
Wed 05:07:33 PM 35.3501 -82.4847 226° Southwest 379 436 32,800 -2,300 Descending FlightAware ADS-B
Wed 05:08:03 PM 35.3135 -82.5307 226° Southwest 378 435 31,600 -2,300 Descending FlightAware ADS-B
Wed 05:08:33 PM 35.2765 -82.5771 226° Southwest 373 429 30,500 -1,967 Descending FlightAware ADS-B
Wed 05:09:04 PM 35.2400 -82.6228 226° Southwest 368 423 29,600 -1,935 Descending FlightAware ADS-B
Wed 05:09:35 PM 35.2033 -82.6686 226° Southwest 366 421 28,500 -2,123 Descending FlightAware ADS-B
Wed 05:10:09 PM 35.1628 -82.7193 226° Southwest 366 421 27,300 -1,853 Descending FlightAware ADS-B
Wed 05:10:43 PM 35.1230 -82.7690 226° Southwest 357 411 26,400 -1,569 Descending FlightAware ADS-B
Wed 05:11:14 PM 35.0889 -82.8117 226° Southwest 350 403 25,600 -1,672 Descending FlightAware ADS-B
Wed 05:11:44 PM 35.0550 -82.8539 226° Southwest 346 398 24,700 -1,787 Descending FlightAware ADS-B
Wed 05:12:01 PM 35.0359 -82.8776 225° Southwest 344 396 24,200 -1,826 Descending FlightAware ADS-B
Wed 05:12:30 PM 35.0018 -82.9174 224° Southwest 342 394 23,300 -1,125 Descending FlightAware ADS-B
Wed 05:13:05 PM 34.9595 -82.9625 221° Southwest 370 426 23,000 -207 Descending FlightAware ADS-B
Wed 05:13:57 PM 34.8897 -83.0331 220° Southwest 377 434 23,000  Level FlightAware ADS-B
Wed 05:14:43 PM 34.8271 -83.0961 220° Southwest 386 444 23,000  Level FlightAware ADS-B
Wed 05:15:24 PM 34.7713 -83.1529 220° Southwest 387 445 23,000  Level FlightAware ADS-B
Wed 05:15:54 PM 34.7298 -83.1954 220° Southwest 386 444 23,000  Level FlightAware ADS-B
Wed 05:16:24 PM 34.6886 -83.2375 220° Southwest 387 445 23,000  Level FlightAware ADS-B
Wed 05:16:55 PM 34.6463 -83.2806 220° Southwest 390 449 23,000 -590 Level FlightAware ADS-B
Wed 05:17:25 PM 34.6047 -83.3227 220° Southwest 385 443 22,400 -1,700 Descending FlightAware ADS-B
Wed 05:17:55 PM 34.5638 -83.3641 220° Southwest 378 435 21,300 -2,022 Descending FlightAware ADS-B
Wed 05:18:57 PM 34.4880 -83.4410 220° Southwest 369 425 19,300 -1,765 Descending FlightAware ADS-B
Wed 05:19:37 PM 34.4370 -83.4920 220° Southwest 354 407 18,300 -1,650 Descending FlightAware ADS-B
Wed 05:20:17 PM 34.3860 -83.5440 220° Southwest 340 391 17,100 -1,906 Descending FlightAware ADS-B
Wed 05:21:02 PM 34.3310 -83.5990 220° Southwest 333 383 15,600 -1,976 Descending FlightAware ADS-B
Wed 05:21:42 PM 34.2850 -83.6450 220° Southwest 331 381 14,300 -2,047 Descending FlightAware ADS-B
Wed 05:22:27 PM 34.2320 -83.6990 220° Southwest 324 373 12,700 -1,624 Descending FlightAware ADS-B
Wed 05:23:07 PM 34.1860 -83.7450 220° Southwest 311 358 12,000 -675 Descending FlightAware ADS-B
Wed 05:23:47 PM 34.1430 -83.7880 220° Southwest 318 366 11,800 -150 Descending FlightAware ADS-B
Wed 05:24:27 PM 34.0970 -83.8340 220° Southwest 318 366 11,800 -730 Level FlightAware ADS-B
Wed 05:25:42 PM 34.0120 -83.9250 222° Southwest 323 372 10,400 -1,140 Descending FlightAware ADS-B
Wed 05:26:07 PM 33.9860 -83.9500 219° Southwest 315 362 9,900 -900 Descending FlightAware ADS-B
Wed 05:26:22 PM 33.9600 -83.9620 201° Southwest 323 372 9,800 -133 Descending FlightAware ADS-B
Wed 05:26:52 PM 33.9160 -83.9590 177° South 309 356 9,800  Level FlightAware ADS-B
Wed 05:27:17 PM 33.8820 -83.9560 176° South 293 337 9,800 -764 Level FlightAware ADS-B
Wed 05:27:47 PM 33.8410 -83.9520 175° South 292 336 9,100 -1,333 Descending FlightAware ADS-B
Wed 05:28:02 PM 33.8200 -83.9500 175° South 292 336 8,800 -1,200 Descending FlightAware ADS-B
Wed 05:28:27 PM 33.7870 -83.9470 176° South 289 333 8,300 -1,200 Descending FlightAware ADS-B
Wed 05:28:37 PM 33.7740 -83.9450 173° South 288 331 8,100 -1,067 Descending FlightAware ADS-B
Wed 05:29:12 PM 33.7320 -83.9410 175° South 274 315 7,500 -1,200 Descending FlightAware ADS-B
Wed 05:29:37 PM 33.6990 -83.9380 176° South 272 313 6,900 -720 Descending FlightAware ADS-B
Wed 05:30:02 PM 33.6680 -83.9340 174° South 272 313 6,900 -150 Level FlightAware ADS-B
Wed 05:30:17 PM 33.6500 -83.9380 190° South 257 296 6,800 -150 Descending FlightAware ADS-B
Wed 05:30:42 PM 33.6230 -83.9480 197° South 257 296 6,800 -698 Level FlightAware ADS-B
Wed 05:33:47 PM 33.6320 -84.1750 273° West 4,700 -738 Descending FlightAware ADS-B
Wed 05:34:12 PM 33.6320 -84.2040 270° West 4,200 -780 Descending FlightAware ADS-B
Wed 05:34:47 PM 33.6320 -84.2390 270° West 3,700 -734 Descending FlightAware ADS-B
Wed 05:37:17 PM 33.6320 -84.3600 270° West 1,800 -711 Descending FlightAware ADS-B
Wed 05:38:01 PM 33.6333 -84.4000 270° West 137 158 1,400 -545 Descending Atlanta TRACON
Wed 05:40:00 PM 33.6367 -84.4279 270° West  Level Estimated
Wed 05:47:00 PM 33.6367 -84.4279 64° Northeast  Level Estimated

Login

Don't have an account? Register now (free) for customized features, flight alerts, and more!